Time;durP1;ratioP1;P1;durP2;ratioP2;P2;SDS_P1;SDS_P2;PMS_P1;PMS_P2;Temp;Humidity;BMP_temperature;BMP_pressure;BME280_temperature;BME280_humidity;BME280_pressure;Samples;Min_cycle;Max_cycle;Signal;HPM_P1;HPM_P2
2023/03/27 00:01:21;;;;;;;7.20;1.17;;;3.30;99.90;;;;;;5086336;28;20409;-80
2023/03/27 00:03:48;;;;;;;5.55;1.10;;;3.20;99.90;;;;;;5086900;28;20099;-80
2023/03/27 00:06:17;;;;;;;6.60;0.90;;;3.20;99.90;;;;;;5085942;28;20040;-80
2023/03/27 00:08:49;;;;;;;9.82;1.40;;;3.20;99.90;;;;;;5069789;28;20040;-80
2023/03/27 00:11:16;;;;;;;10.75;1.33;;;3.20;99.90;;;;;;5086400;28;20041;-80
2023/03/27 00:13:43;;;;;;;7.32;1.60;;;3.20;99.90;;;;;;5102615;28;20124;-80
2023/03/27 00:16:11;;;;;;;4.35;0.80;;;3.10;99.90;;;;;;5086382;28;20044;-79
2023/03/27 00:18:38;;;;;;;7.55;1.15;;;3.10;99.90;;;;;;5102615;28;20040;-79
2023/03/27 00:21:05;;;;;;;7.63;1.13;;;3.10;99.90;;;;;;5069306;28;20041;-79
2023/03/27 00:23:31;;;;;;;6.45;1.30;;;3.10;99.90;;;;;;5068970;28;20078;-79
2023/03/27 00:25:59;;;;;;;10.30;1.33;;;3.00;99.90;;;;;;5069704;28;20457;-80
2023/03/27 00:28:28;;;;;;;5.50;1.02;;;3.40;99.90;;;;;;5085812;28;20033;-80
2023/03/27 00:30:56;;;;;;;4.35;1.13;;;3.00;99.90;;;;;;5085777;28;20037;-80
2023/03/27 00:33:23;;;;;;;4.95;1.05;;;3.00;99.90;;;;;;5085328;28;20081;-80
2023/03/27 00:35:51;;;;;;;7.72;1.17;;;3.00;99.90;;;;;;5084963;28;20045;-79
2023/03/27 00:38:18;;;;;;;3.83;0.88;;;3.30;99.90;;;;;;5102428;28;20041;-80
2023/03/27 00:40:45;;;;;;;7.15;0.98;;;2.90;99.90;;;;;;5085748;28;20041;-79
2023/03/27 00:43:19;;;;;;;4.88;1.05;;;2.90;99.90;;;;;;5069135;28;20063;-79
2023/03/27 00:45:47;;;;;;;4.80;1.40;;;3.00;99.90;;;;;;5069182;28;20037;-80
2023/03/27 00:48:15;;;;;;;6.93;1.10;;;3.10;99.90;;;;;;5102164;28;20497;-79
2023/03/27 00:50:43;;;;;;;11.52;1.35;;;3.40;99.90;;;;;;5085611;28;20044;-80
2023/03/27 00:53:14;;;;;;;7.57;1.10;;;3.20;99.90;;;;;;5085651;28;20043;-79
2023/03/27 00:55:45;;;;;;;9.93;1.30;;;2.80;99.90;;;;;;5102301;28;20052;-79
2023/03/27 00:58:38;;;;;;;7.47;1.02;;;2.90;99.90;;;;;;5068786;28;20131;-79
2023/03/27 01:01:08;;;;;;;5.68;1.00;;;2.80;99.90;;;;;;5084480;28;20041;-79
2023/03/27 01:03:35;;;;;;;5.70;1.08;;;2.80;99.90;;;;;;5085447;28;20044;-79
2023/03/27 01:06:03;;;;;;;7.03;1.23;;;2.90;99.90;;;;;;5085312;28;20048;-79
2023/03/27 01:08:32;;;;;;;9.68;1.13;;;2.80;99.90;;;;;;5101899;28;20409;-79
2023/03/27 01:11:31;;;;;;;11.45;1.58;;;2.80;99.90;;;;;;5068923;28;20053;-80
2023/03/27 01:14:31;;;;;;;8.65;1.35;;;2.80;99.90;;;;;;5068691;28;20118;-79
2023/03/27 01:17:07;;;;;;;9.57;1.65;;;2.80;99.90;;;;;;5085595;28;20392;-80
2023/03/27 01:19:55;;;;;;;8.30;1.55;;;2.80;99.90;;;;;;5068637;28;20493;-79
2023/03/27 01:22:34;;;;;;;5.72;0.98;;;2.80;99.90;;;;;;5102415;28;20044;-79
2023/03/27 01:25:38;;;;;;;8.20;1.10;;;2.80;99.90;;;;;;5102175;28;20511;-79
2023/03/27 01:28:30;;;;;;;7.93;1.40;;;2.80;99.90;;;;;;5102436;28;20049;-79
2023/03/27 01:31:24;;;;;;;4.97;1.00;;;2.80;99.90;;;;;;5069000;28;20383;-80
2023/03/27 01:34:28;;;;;;;3.80;0.90;;;2.80;99.90;;;;;;5085823;28;20040;-80
2023/03/27 01:37:12;;;;;;;8.68;1.00;;;2.80;99.90;;;;;;5102245;28;20052;-79
2023/03/27 01:39:41;;;;;;;8.73;1.23;;;2.70;99.90;;;;;;5101796;28;20045;-80
2023/03/27 01:42:29;;;;;;;9.15;1.20;;;2.70;99.90;;;;;;5102026;28;20459;-79
2023/03/27 01:45:20;;;;;;;6.78;1.20;;;2.70;99.90;;;;;;5068511;28;20041;-79
2023/03/27 01:48:03;;;;;;;10.38;1.33;;;2.80;99.90;;;;;;5070631;28;20124;-79
2023/03/27 01:50:47;;;;;;;7.50;1.23;;;2.70;99.90;;;;;;5072501;28;20033;-79
2023/03/27 01:53:23;;;;;;;7.07;1.42;;;2.70;99.90;;;;;;5072515;28;20131;-79
2023/03/27 01:55:57;;;;;;;9.98;1.50;;;2.60;99.90;;;;;;5072086;28;20043;-79
2023/03/27 01:58:48;;;;;;;6.78;1.55;;;2.60;99.90;;;;;;5072836;28;20052;-79
2023/03/27 02:01:20;;;;;;;3.75;1.30;;;2.50;99.90;;;;;;5072622;28;20079;-80
2023/03/27 02:03:54;;;;;;;4.97;1.10;;;2.50;99.90;;;;;;5088708;28;20040;-80
2023/03/27 02:06:28;;;;;;;6.40;1.25;;;2.50;99.90;;;;;;5072390;28;20036;-79
2023/03/27 02:09:04;;;;;;;9.68;1.35;;;2.50;99.90;;;;;;5072433;28;20062;-80
2023/03/27 02:11:39;;;;;;;8.70;1.77;;;2.60;99.90;;;;;;5088401;28;20048;-80
2023/03/27 02:14:16;;;;;;;4.43;1.20;;;2.40;99.90;;;;;;5072084;28;20052;-79
2023/03/27 02:16:47;;;;;;;7.07;1.17;;;2.40;99.90;;;;;;5071685;28;20037;-80
2023/03/27 02:19:22;;;;;;;8.40;1.40;;;2.50;99.90;;;;;;5071708;28;20413;-79
2023/03/27 02:21:48;;;;;;;10.55;1.45;;;2.40;99.90;;;;;;5071501;28;20400;-79
2023/03/27 02:24:17;;;;;;;5.15;0.95;;;2.70;99.90;;;;;;5088156;28;20171;-80
2023/03/27 02:26:47;;;;;;;8.65;1.40;;;2.30;99.90;;;;;;5071327;28;20037;-80
2023/03/27 02:29:36;;;;;;;7.95;1.42;;;2.40;99.90;;;;;;5094588;28;20041;-80
2023/03/27 02:32:31;;;;;;;8.07;1.17;;;2.40;99.90;;;;;;5104670;28;20120;-79
2023/03/27 02:35:16;;;;;;;5.20;1.02;;;2.50;99.90;;;;;;5067692;28;20056;-79
2023/03/27 02:38:00;;;;;;;8.10;1.40;;;2.50;99.90;;;;;;5104563;28;20072;-80
2023/03/27 02:40:34;;;;;;;6.57;1.42;;;2.50;99.90;;;;;;5087904;28;20124;-79
2023/03/27 02:43:27;;;;;;;7.93;1.33;;;2.50;99.90;;;;;;5088197;28;20040;-80
2023/03/27 02:46:03;;;;;;;3.58;1.00;;;2.50;99.90;;;;;;5071133;28;20041;-80
2023/03/27 02:48:43;;;;;;;7.35;1.10;;;2.40;99.90;;;;;;5071207;28;20039;-80
2023/03/27 02:51:16;;;;;;;6.47;1.15;;;2.40;99.90;;;;;;5086774;28;20084;-79
2023/03/27 02:53:56;;;;;;;7.13;1.63;;;2.40;99.90;;;;;;5104235;28;20127;-79
2023/03/27 02:56:26;;;;;;;9.38;1.55;;;2.40;99.90;;;;;;5088183;28;20037;-80
2023/03/27 02:59:04;;;;;;;9.10;1.30;;;2.50;99.90;;;;;;5086411;28;20036;-80
2023/03/27 03:01:33;;;;;;;6.07;1.27;;;2.40;99.90;;;;;;5071671;28;20041;-80
2023/03/27 03:04:09;;;;;;;6.13;1.23;;;2.30;99.90;;;;;;5087611;28;20124;-79
2023/03/27 03:06:36;;;;;;;9.77;1.55;;;2.20;99.90;;;;;;5071027;28;20497;-79
2023/03/27 03:09:04;;;;;;;6.18;1.23;;;2.20;99.90;;;;;;5070638;28;20037;-79
2023/03/27 03:11:37;;;;;;;8.25;1.65;;;2.10;99.90;;;;;;5087463;28;20059;-79
2023/03/27 03:14:04;;;;;;;4.72;1.10;;;2.10;99.90;;;;;;5070624;28;20045;-79
2023/03/27 03:16:31;;;;;;;7.05;1.38;;;2.40;99.90;;;;;;5070695;28;20432;-80
2023/03/27 03:18:58;;;;;;;6.78;1.55;;;2.00;99.90;;;;;;5086747;28;20036;-79
2023/03/27 03:21:24;;;;;;;6.57;1.13;;;2.00;99.90;;;;;;5087357;28;20044;-79
2023/03/27 03:23:51;;;;;;;4.43;1.40;;;2.10;99.90;;;;;;5087221;28;20047;-80
2023/03/27 03:26:18;;;;;;;7.55;1.20;;;2.10;99.90;;;;;;5070724;28;20041;-79
2023/03/27 03:28:46;;;;;;;4.32;1.20;;;2.00;99.90;;;;;;5070295;28;20045;-80
2023/03/27 03:31:13;;;;;;;4.13;1.30;;;1.90;99.90;;;;;;5070524;28;20037;-79
2023/03/27 03:33:40;;;;;;;4.30;1.10;;;2.60;99.90;;;;;;5087170;28;20045;-80
2023/03/27 03:36:07;;;;;;;6.95;1.50;;;2.20;99.90;;;;;;5070537;28;20044;-80
2023/03/27 03:38:34;;;;;;;4.57;1.35;;;1.90;99.90;;;;;;5087272;28;20098;-79
2023/03/27 03:41:01;;;;;;;4.68;1.20;;;2.40;99.90;;;;;;5086541;28;20127;-80
2023/03/27 03:43:30;;;;;;;4.97;1.17;;;2.40;99.90;;;;;;5070376;28;20062;-79
2023/03/27 03:45:57;;;;;;;6.97;1.40;;;1.90;99.90;;;;;;5070396;28;20069;-79
2023/03/27 03:48:24;;;;;;;6.95;1.42;;;2.00;99.90;;;;;;5070372;28;20033;-80
2023/03/27 03:50:51;;;;;;;10.98;1.60;;;2.00;99.90;;;;;;5086744;28;20140;-79
2023/03/27 03:53:20;;;;;;;6.50;1.38;;;2.10;99.90;;;;;;5103359;28;20068;-79
2023/03/27 03:55:49;;;;;;;7.03;1.35;;;2.00;99.90;;;;;;5086263;28;20041;-80
2023/03/27 03:58:16;;;;;;;4.30;1.17;;;2.40;99.90;;;;;;5086913;28;20044;-79
2023/03/27 04:00:43;;;;;;;3.95;1.48;;;2.00;99.90;;;;;;5069851;28;20037;-79
2023/03/27 04:03:10;;;;;;;5.68;1.25;;;2.00;99.90;;;;;;5069531;28;20037;-79
2023/03/27 04:05:37;;;;;;;5.30;1.20;;;2.50;99.90;;;;;;5086342;28;20040;-79
2023/03/27 04:08:07;;;;;;;6.25;1.23;;;2.00;99.90;;;;;;5085988;28;20040;-79
2023/03/27 04:10:39;;;;;;;9.27;1.33;;;2.00;99.90;;;;;;5102805;28;20044;-79
2023/03/27 04:13:06;;;;;;;7.65;1.58;;;2.10;99.90;;;;;;5069174;28;20539;-80
2023/03/27 04:15:33;;;;;;;3.78;1.27;;;2.80;99.90;;;;;;5069795;28;20095;-79
2023/03/27 04:18:00;;;;;;;13.13;3.03;;;2.20;99.90;;;;;;5086154;28;20033;-80
2023/03/27 04:20:27;;;;;;;6.10;1.60;;;2.20;99.90;;;;;;5086519;28;20041;-79
2023/03/27 04:22:55;;;;;;;7.13;1.60;;;2.70;99.90;;;;;;5086036;28;20086;-79
2023/03/27 04:25:23;;;;;;;7.10;1.52;;;2.20;99.90;;;;;;5085924;28;20044;-79
2023/03/27 04:27:50;;;;;;;4.85;1.23;;;2.40;99.90;;;;;;5069239;28;20474;-80
2023/03/27 04:30:21;;;;;;;8.25;1.45;;;2.70;99.90;;;;;;5086158;28;20044;-80
2023/03/27 04:32:49;;;;;;;11.35;1.98;;;2.10;99.90;;;;;;5069347;28;20041;-79
2023/03/27 04:35:17;;;;;;;8.05;1.50;;;2.10;99.90;;;;;;5085911;28;20146;-79
2023/03/27 04:37:45;;;;;;;7.63;1.60;;;2.30;99.90;;;;;;5085673;28;20086;-79
2023/03/27 04:40:13;;;;;;;9.77;2.00;;;2.30;99.90;;;;;;5069035;28;20124;-79
2023/03/27 04:42:42;;;;;;;4.22;1.40;;;2.00;99.90;;;;;;5086023;28;20178;-79
2023/03/27 04:45:19;;;;;;;7.35;1.60;;;1.90;99.90;;;;;;5069046;28;20037;-80
2023/03/27 04:47:47;;;;;;;5.97;1.83;;;2.00;99.90;;;;;;5085712;28;20070;-79
2023/03/27 04:50:15;;;;;;;7.28;1.77;;;1.90;99.90;;;;;;5081783;28;20076;-80
2023/03/27 04:52:42;;;;;;;6.75;1.50;;;1.80;99.90;;;;;;5065462;28;20497;-79
2023/03/27 04:55:10;;;;;;;4.88;1.15;;;1.90;99.90;;;;;;5065445;28;20041;-79
2023/03/27 04:57:38;;;;;;;8.45;2.30;;;2.10;99.90;;;;;;5065556;28;20041;-79
2023/03/27 05:00:14;;;;;;;11.85;2.05;;;1.80;99.90;;;;;;5049059;28;20041;-80
2023/03/27 05:02:41;;;;;;;9.27;1.70;;;1.80;99.90;;;;;;5080989;28;20045;-79
2023/03/27 05:05:09;;;;;;;5.45;1.40;;;1.80;99.90;;;;;;5064572;28;20400;-79
2023/03/27 05:07:35;;;;;;;9.50;1.50;;;1.70;99.90;;;;;;5048479;28;20047;-80
2023/03/27 05:10:03;;;;;;;7.93;1.88;;;1.70;99.90;;;;;;5064985;28;20037;-80
2023/03/27 05:12:30;;;;;;;7.63;1.52;;;1.70;99.90;;;;;;5081111;28;20512;-80
2023/03/27 05:14:58;;;;;;;7.10;1.70;;;1.70;99.90;;;;;;5064568;28;20058;-79
2023/03/27 05:17:24;;;;;;;8.00;1.80;;;1.70;99.90;;;;;;5066107;28;20409;-79
2023/03/27 05:19:51;;;;;;;5.47;1.52;;;1.80;99.90;;;;;;5052370;28;20041;-79
2023/03/27 05:22:18;;;;;;;4.32;1.20;;;1.80;99.90;;;;;;5069818;28;20041;-79
2023/03/27 05:24:44;;;;;;;10.07;1.70;;;1.90;99.90;;;;;;5056578;28;20073;-80
2023/03/27 05:27:11;;;;;;;6.30;1.60;;;2.00;99.90;;;;;;5056114;28;20048;-79
2023/03/27 05:29:39;;;;;;;7.47;1.23;;;2.00;99.90;;;;;;5055870;28;20120;-80
2023/03/27 05:32:05;;;;;;;2.47;1.00;;;2.10;99.90;;;;;;5089198;28;20045;-79
2023/03/27 05:34:33;;;;;;;4.95;1.23;;;2.10;99.90;;;;;;5089259;28;20127;-79
2023/03/27 05:37:04;;;;;;;4.97;1.20;;;2.50;99.90;;;;;;5089307;28;20049;-80
2023/03/27 05:39:31;;;;;;;12.07;1.35;;;2.70;99.90;;;;;;5072768;28;20119;-79
2023/03/27 05:41:57;;;;;;;9.45;1.73;;;2.30;99.90;;;;;;5089682;28;20045;-79
2023/03/27 05:44:25;;;;;;;4.53;1.15;;;2.50;99.90;;;;;;5089174;28;20095;-79
2023/03/27 05:46:52;;;;;;;4.80;1.30;;;2.40;99.90;;;;;;5072836;28;20051;-80
2023/03/27 05:49:19;;;;;;;9.35;1.50;;;2.20;99.90;;;;;;5088634;28;20572;-80
2023/03/27 05:51:45;;;;;;;7.03;1.40;;;2.30;99.90;;;;;;5072716;28;20076;-79
2023/03/27 05:54:12;;;;;;;4.95;1.00;;;2.40;99.90;;;;;;5088725;28;20063;-79
2023/03/27 05:56:39;;;;;;;7.93;1.20;;;2.40;99.90;;;;;;5089361;28;20084;-79
2023/03/27 05:59:06;;;;;;;5.82;0.90;;;2.40;99.90;;;;;;5088566;28;20041;-80
2023/03/27 06:01:36;;;;;;;12.50;2.35;;;2.40;99.90;;;;;;5072639;28;20048;-79
2023/03/27 06:04:03;;;;;;;4.85;1.00;;;2.50;99.90;;;;;;5088423;28;20511;-80
2023/03/27 06:06:31;;;;;;;4.85;0.80;;;2.40;99.90;;;;;;5105312;28;20037;-80
2023/03/27 06:08:58;;;;;;;5.35;1.55;;;2.50;99.90;;;;;;5072186;28;20044;-80
2023/03/27 06:11:25;;;;;;;3.58;0.90;;;2.50;99.90;;;;;;5071298;28;20041;-79
2023/03/27 06:13:51;;;;;;;5.68;0.90;;;2.50;99.90;;;;;;5038816;28;20171;-80
2023/03/27 06:16:19;;;;;;;1.02;0.55;;;2.50;99.90;;;;;;5054924;28;20040;-80
2023/03/27 06:18:47;;;;;;;5.32;1.60;;;2.40;99.90;;;;;;5055532;28;20501;-80
2023/03/27 06:21:14;;;;;;;3.88;1.00;;;2.40;99.90;;;;;;5071566;28;20056;-80
2023/03/27 06:23:42;;;;;;;7.72;1.10;;;2.40;99.90;;;;;;5071770;28;20127;-80
2023/03/27 06:26:09;;;;;;;7.68;1.90;;;2.40;99.90;;;;;;5071666;28;20060;-80
2023/03/27 06:28:37;;;;;;;8.63;2.10;;;2.70;99.90;;;;;;5038552;28;20068;-81
2023/03/27 06:31:05;;;;;;;8.02;1.42;;;2.40;99.90;;;;;;5039375;28;20037;-81
2023/03/27 06:33:32;;;;;;;5.43;0.90;;;2.50;99.90;;;;;;5053957;28;20125;-80
2023/03/27 06:36:01;;;;;;;7.80;1.00;;;2.50;99.90;;;;;;5071935;28;20040;-80
2023/03/27 06:38:31;;;;;;;2.65;0.85;;;2.50;99.90;;;;;;5055151;28;20052;-80
2023/03/27 06:40:58;;;;;;;9.50;1.05;;;2.60;99.90;;;;;;5071059;28;20045;-81
2023/03/27 06:43:25;;;;;;;6.63;1.08;;;2.60;99.90;;;;;;5038659;28;20035;-81
2023/03/27 06:45:52;;;;;;;3.25;0.80;;;2.60;99.90;;;;;;5054808;28;20667;-81
2023/03/27 06:48:19;;;;;;;8.00;1.00;;;2.80;99.90;;;;;;5054078;28;20033;-80
2023/03/27 06:50:49;;;;;;;8.07;1.13;;;2.60;99.90;;;;;;5071118;28;20041;-81
2023/03/27 06:53:16;;;;;;;5.75;1.23;;;2.60;99.90;;;;;;5070958;28;20519;-80
2023/03/27 06:55:44;;;;;;;5.53;0.95;;;2.90;99.90;;;;;;5068141;28;20116;-79
2023/03/27 06:58:15;;;;;;;7.20;1.38;;;3.10;99.90;;;;;;5087094;28;20496;-81
2023/03/27 07:00:42;;;;;;;5.30;1.17;;;2.70;99.90;;;;;;5137875;28;20052;-80
2023/03/27 07:03:10;;;;;;;7.95;1.05;;;2.90;99.90;;;;;;5067270;28;20092;-80
2023/03/27 07:05:39;;;;;;;7.28;1.35;;;3.30;99.90;;;;;;5067433;28;20037;-80
2023/03/27 07:08:11;;;;;;;10.82;1.25;;;3.20;99.90;;;;;;5083896;28;20053;-80
2023/03/27 07:10:38;;;;;;;5.25;1.10;;;3.30;99.90;;;;;;5084264;28;20486;-80
2023/03/27 07:13:06;;;;;;;5.18;1.13;;;3.30;99.90;;;;;;5100734;28;20486;-80
2023/03/27 07:15:34;;;;;;;5.07;1.45;;;3.30;99.90;;;;;;5100399;28;20049;-80
2023/03/27 07:18:05;;;;;;;4.22;1.08;;;3.70;99.90;;;;;;5083869;28;20133;-80
2023/03/27 07:20:33;;;;;;;13.02;1.52;;;3.30;99.90;;;;;;5100161;28;20045;-81
2023/03/27 07:23:01;;;;;;;7.25;1.33;;;3.40;99.90;;;;;;5053196;28;20045;-81
2023/03/27 07:25:36;;;;;;;9.52;1.02;;;3.40;99.90;;;;;;5053155;28;20512;-80
2023/03/27 07:28:05;;;;;;;8.55;1.25;;;3.50;99.90;;;;;;5068210;28;20033;-80
2023/03/27 07:30:33;;;;;;;7.82;1.63;;;3.70;99.90;;;;;;5049607;28;20741;-81
2023/03/27 07:33:00;;;;;;;5.95;1.20;;;3.90;99.90;;;;;;5073296;28;20383;-80
2023/03/27 07:35:27;;;;;;;11.40;1.15;;;4.10;99.90;;;;;;5069430;28;20413;-80
2023/03/27 07:37:54;;;;;;;3.65;1.10;;;4.20;99.90;;;;;;5036749;28;20037;-81
2023/03/27 07:40:22;;;;;;;7.13;1.10;;;4.20;99.90;;;;;;5053379;28;20106;-81
2023/03/27 07:42:50;;;;;;;8.90;1.10;;;4.20;99.90;;;;;;5068192;28;20040;-80
2023/03/27 07:45:17;;;;;;;5.47;1.17;;;4.40;99.90;;;;;;5069226;28;20044;-81
2023/03/27 07:47:45;;;;;;;7.30;1.13;;;4.70;99.90;;;;;;5086443;28;20036;-81
2023/03/27 07:50:14;;;;;;;4.32;1.20;;;4.30;99.90;;;;;;5069995;28;20037;-81
2023/03/27 07:52:43;;;;;;;7.45;1.25;;;4.30;99.90;;;;;;5069104;28;20049;-81
2023/03/27 07:55:13;;;;;;;6.82;1.30;;;4.10;99.90;;;;;;5053381;28;20044;-81
2023/03/27 07:57:43;;;;;;;6.90;1.33;;;4.00;99.90;;;;;;5069229;28;20507;-81
2023/03/27 08:00:11;;;;;;;7.63;1.58;;;4.10;99.90;;;;;;5068881;28;20421;-81
2023/03/27 08:02:38;;;;;;;5.68;1.10;;;4.20;99.90;;;;;;5052937;28;20029;-81
2023/03/27 08:05:10;;;;;;;4.80;0.90;;;4.30;99.90;;;;;;5053155;28;20497;-81
2023/03/27 08:07:38;;;;;;;7.90;0.90;;;4.40;99.90;;;;;;5069014;28;20059;-81
2023/03/27 08:10:05;;;;;;;2.13;0.55;;;4.60;99.90;;;;;;5053363;28;20037;-82
2023/03/27 08:12:33;;;;;;;2.03;0.75;;;4.70;99.90;;;;;;5102469;28;20135;-81
2023/03/27 08:15:01;;;;;;;3.65;0.95;;;5.30;99.90;;;;;;5068791;28;20121;-81
2023/03/27 08:17:29;;;;;;;3.42;1.05;;;4.90;99.90;;;;;;5085467;28;20087;-82
2023/03/27 08:19:56;;;;;;;6.13;1.67;;;5.00;99.90;;;;;;5102252;28;20040;-81
2023/03/27 08:22:24;;;;;;;6.35;1.13;;;5.30;99.90;;;;;;5084942;28;20076;-82
2023/03/27 08:24:51;;;;;;;7.18;0.90;;;5.20;99.90;;;;;;5065893;28;20034;-80
2023/03/27 08:27:17;;;;;;;3.17;1.08;;;5.20;99.90;;;;;;5082456;28;20044;-82
2023/03/27 08:29:44;;;;;;;5.68;1.10;;;5.20;99.90;;;;;;5098593;28;20041;-82
2023/03/27 08:32:11;;;;;;;5.50;1.17;;;5.20;99.90;;;;;;5082406;28;20115;-81
2023/03/27 08:34:39;;;;;;;4.05;0.88;;;5.20;99.90;;;;;;5081704;28;20387;-81
2023/03/27 08:37:07;;;;;;;6.97;1.00;;;5.20;99.90;;;;;;5081955;28;20048;-81
2023/03/27 08:39:34;;;;;;;5.00;0.88;;;5.40;99.90;;;;;;5099092;28;20481;-81
2023/03/27 08:42:05;;;;;;;5.10;1.00;;;5.30;99.90;;;;;;5068729;28;20138;-81
2023/03/27 08:44:34;;;;;;;6.03;1.05;;;5.40;99.90;;;;;;5068409;28;20128;-81
2023/03/27 08:47:23;;;;;;;3.38;0.70;;;5.50;99.90;;;;;;5069251;28;20037;-82
2023/03/27 08:49:56;;;;;;;10.02;1.30;;;5.50;99.90;;;;;;5085502;28;20405;-81
2023/03/27 08:52:29;;;;;;;6.45;1.00;;;5.60;99.90;;;;;;5101154;28;20493;-82
2023/03/27 08:55:13;;;;;;;3.00;0.73;;;5.70;99.90;;;;;;5092896;28;20045;-81
2023/03/27 08:57:40;;;;;;;4.38;0.95;;;5.80;99.90;;;;;;5067573;28;20082;-81
2023/03/27 09:00:19;;;;;;;3.65;0.93;;;5.80;99.90;;;;;;5052043;28;20040;-82
2023/03/27 09:03:16;;;;;;;6.88;1.50;;;5.90;99.90;;;;;;5085498;28;20128;-81
2023/03/27 09:05:51;;;;;;;5.80;1.25;;;6.00;99.90;;;;;;5068478;28;20072;-81
2023/03/27 09:08:24;;;;;;;8.60;1.20;;;6.10;99.90;;;;;;5102422;28;20037;-81
2023/03/27 09:11:01;;;;;;;5.15;0.93;;;6.20;99.90;;;;;;5102008;28;20041;-81
2023/03/27 09:13:44;;;;;;;5.47;1.10;;;6.20;99.90;;;;;;5100869;28;20052;-81
2023/03/27 09:16:20;;;;;;;4.55;0.90;;;6.30;99.90;;;;;;5068181;28;20574;-81
2023/03/27 09:18:59;;;;;;;7.78;1.48;;;6.50;99.90;;;;;;5101769;28;20044;-81
2023/03/27 09:21:44;;;;;;;5.93;0.93;;;6.60;99.90;;;;;;5101257;28;20049;-82
2023/03/27 09:24:34;;;;;;;6.95;1.40;;;6.30;99.90;;;;;;5068906;28;20037;-82
2023/03/27 09:27:19;;;;;;;3.67;0.90;;;5.90;99.90;;;;;;5102140;28;20076;-81
2023/03/27 09:30:09;;;;;;;5.60;0.98;;;5.60;99.90;;;;;;5068295;28;20049;-81
2023/03/27 09:32:37;;;;;;;6.18;1.13;;;5.60;99.90;;;;;;5068305;28;20037;-81
2023/03/27 09:35:05;;;;;;;9.10;1.00;;;5.60;99.90;;;;;;5035919;28;20040;-81
2023/03/27 09:37:31;;;;;;;3.10;0.70;;;5.70;99.90;;;;;;5034744;28;20045;-82
2023/03/27 09:39:59;;;;;;;3.50;0.50;;;5.80;99.90;;;;;;5084865;28;20408;-80
2023/03/27 09:42:36;;;;;;;8.90;1.02;;;5.80;99.90;;;;;;5084730;28;20036;-81
2023/03/27 09:45:06;;;;;;;4.53;0.80;;;6.00;99.90;;;;;;5101409;28;20041;-82
2023/03/27 09:47:43;;;;;;;4.53;0.90;;;6.30;99.90;;;;;;5067817;28;20127;-81
2023/03/27 09:50:31;;;;;;;2.42;0.70;;;6.30;99.90;;;;;;5067200;28;20444;-81
2023/03/27 09:53:19;;;;;;;5.15;0.93;;;6.00;99.90;;;;;;5059507;28;20090;-81
2023/03/27 09:55:59;;;;;;;5.18;0.80;;;5.80;99.90;;;;;;5061472;28;20498;-81
2023/03/27 09:58:26;;;;;;;5.35;0.98;;;5.90;99.90;;;;;;5068000;28;20132;-81
2023/03/27 10:01:14;;;;;;;4.50;0.80;;;6.10;99.90;;;;;;5098529;28;20179;-81
2023/03/27 10:03:47;;;;;;;4.97;0.80;;;6.40;99.90;;;;;;5060234;28;20168;-80
2023/03/27 10:06:24;;;;;;;2.35;0.73;;;6.60;99.90;;;;;;5067538;28;20072;-82
2023/03/27 10:08:50;;;;;;;3.40;0.80;;;6.70;99.90;;;;;;5070068;28;20075;-81
2023/03/27 10:11:23;;;;;;;7.85;0.93;;;6.70;99.90;;;;;;5069527;28;20052;-81
2023/03/27 10:13:51;;;;;;;2.70;0.55;;;6.70;99.90;;;;;;5071547;28;20053;-81
2023/03/27 10:16:20;;;;;;;3.65;0.65;;;6.70;99.90;;;;;;5071612;28;20422;-81
2023/03/27 10:18:51;;;;;;;2.15;0.60;;;6.50;99.90;;;;;;5071357;28;20456;-80
2023/03/27 10:21:42;;;;;;;1.30;0.60;;;6.50;99.90;;;;;;5104886;28;20037;-81
2023/03/27 10:24:20;;;;;;;4.30;0.75;;;6.70;99.90;;;;;;5071742;28;20409;-81
2023/03/27 10:26:51;;;;;;;5.05;0.77;;;7.10;99.90;;;;;;5105410;28;20036;-80
2023/03/27 10:29:28;;;;;;;5.90;0.90;;;7.30;99.90;;;;;;5056765;28;20040;-81
2023/03/27 10:31:57;;;;;;;6.30;0.82;;;7.10;99.90;;;;;;5094306;28;20052;-80
2023/03/27 10:34:31;;;;;;;2.90;0.60;;;7.20;99.90;;;;;;5071759;28;20036;-81
2023/03/27 10:37:03;;;;;;;2.95;0.70;;;7.20;99.90;;;;;;5104426;28;20041;-81
2023/03/27 10:39:34;;;;;;;5.80;0.70;;;7.30;99.90;;;;;;5071575;28;20489;-81
2023/03/27 10:42:08;;;;;;;3.72;0.80;;;7.40;99.90;;;;;;5090041;28;20464;-81
2023/03/27 10:44:37;;;;;;;5.80;0.93;;;7.50;99.90;;;;;;5094721;28;20451;-81
2023/03/27 10:47:13;;;;;;;3.22;0.80;;;7.60;99.90;;;;;;5071327;28;20120;-81
2023/03/27 10:49:46;;;;;;;3.03;0.80;;;7.40;99.90;;;;;;5070953;28;20048;-81
2023/03/27 10:52:30;;;;;;;4.65;1.08;;;7.10;99.90;;;;;;5070475;28;20040;-81
2023/03/27 10:55:16;;;;;;;9.13;1.10;;;6.70;99.90;;;;;;5087213;28;20126;-81
2023/03/27 10:57:48;;;;;;;6.55;0.93;;;6.00;99.90;;;;;;5103761;28;20107;-81
2023/03/27 11:00:18;;;;;;;4.15;0.63;;;6.00;99.90;;;;;;5071111;28;20041;-80
2023/03/27 11:03:09;;;;;;;4.43;0.98;;;5.90;99.90;;;;;;5103608;28;20040;-81
2023/03/27 11:05:40;;;;;;;4.47;0.70;;;6.00;99.90;;;;;;5070365;28;20037;-80
2023/03/27 11:08:11;;;;;;;6.95;0.68;;;6.30;99.90;;;;;;5070607;28;20037;-81
2023/03/27 11:10:43;;;;;;;3.92;0.77;;;6.50;99.90;;;;;;5070600;28;20041;-81
2023/03/27 11:13:13;;;;;;;5.10;0.90;;;6.40;99.90;;;;;;5102179;28;20489;-81
2023/03/27 11:15:49;;;;;;;6.32;1.00;;;6.20;99.90;;;;;;5069713;28;20063;-80
2023/03/27 11:18:25;;;;;;;5.63;0.80;;;6.10;99.90;;;;;;5065273;28;20041;-80
2023/03/27 11:21:02;;;;;;;2.92;0.68;;;6.10;99.90;;;;;;5068868;28;20045;-81
2023/03/27 11:23:37;;;;;;;8.70;1.58;;;6.30;99.90;;;;;;5069773;28;20037;-81
2023/03/27 11:26:06;;;;;;;1.83;0.67;;;6.60;99.90;;;;;;5070437;28;20033;-80
2023/03/27 11:28:42;;;;;;;8.43;0.90;;;6.80;99.90;;;;;;5053221;28;20637;-80
2023/03/27 11:31:33;;;;;;;4.10;1.15;;;7.00;99.90;;;;;;5070131;28;20040;-80
2023/03/27 11:34:18;;;;;;;3.15;0.77;;;7.00;99.90;;;;;;5069734;28;20037;-80
2023/03/27 11:37:08;;;;;;;4.28;0.73;;;7.20;99.90;;;;;;5069618;28;20041;-80
2023/03/27 11:39:47;;;;;;;3.28;0.70;;;7.30;99.90;;;;;;5068089;28;20068;-80
2023/03/27 11:42:25;;;;;;;5.70;0.93;;;7.40;99.90;;;;;;5069646;28;20043;-81
2023/03/27 11:44:52;;;;;;;4.47;1.13;;;7.50;99.90;;;;;;5068990;28;20041;-80
2023/03/27 11:47:34;;;;;;;4.25;0.88;;;7.30;99.90;;;;;;5069047;28;20481;-80
2023/03/27 11:50:14;;;;;;;2.95;0.93;;;7.50;99.90;;;;;;5101755;28;20048;-80
2023/03/27 11:53:08;;;;;;;6.22;0.73;;;7.40;99.90;;;;;;5084729;28;20517;-80
2023/03/27 11:55:56;;;;;;;6.85;1.20;;;7.20;99.90;;;;;;5068607;28;20044;-80
2023/03/27 11:58:33;;;;;;;9.52;1.00;;;6.90;99.90;;;;;;5102170;28;20043;-80
2023/03/27 12:01:12;;;;;;;5.38;0.90;;;7.00;99.90;;;;;;5084946;28;20169;-81
2023/03/27 12:04:07;;;;;;;2.72;0.90;;;7.10;99.90;;;;;;5078261;28;20037;-81
2023/03/27 12:06:54;;;;;;;5.50;0.77;;;7.40;99.90;;;;;;5069564;28;20047;-80
2023/03/27 12:09:58;;;;;;;7.70;1.27;;;7.50;99.90;;;;;;5069130;28;20128;-80
2023/03/27 12:12:46;;;;;;;6.18;1.17;;;7.30;99.90;;;;;;5111913;28;20095;-80
2023/03/27 12:15:27;;;;;;;4.05;0.70;;;7.40;99.90;;;;;;5101782;28;20053;-81
2023/03/27 12:18:14;;;;;;;6.63;1.05;;;7.50;99.90;;;;;;5101652;28;20072;-81
2023/03/27 12:21:23;;;;;;;5.20;0.90;;;7.60;99.90;;;;;;5068458;28;20044;-81
2023/03/27 12:23:56;;;;;;;4.93;0.82;;;7.80;99.90;;;;;;5062252;28;20041;-79
2023/03/27 12:26:44;;;;;;;3.88;0.73;;;7.90;99.90;;;;;;5093510;28;20059;-80
2023/03/27 12:29:37;;;;;;;3.70;0.85;;;7.70;99.90;;;;;;5068746;28;20171;-80
2023/03/27 12:32:46;;;;;;;3.55;0.88;;;7.60;99.90;;;;;;5101605;28;20040;-79
2023/03/27 12:35:20;;;;;;;6.35;0.90;;;7.50;99.90;;;;;;5072905;28;20114;-80
2023/03/27 12:37:59;;;;;;;3.95;0.88;;;7.40;99.90;;;;;;5064233;28;20043;-82
2023/03/27 12:40:27;;;;;;;4.55;0.60;;;7.40;99.90;;;;;;5067608;28;20120;-80
2023/03/27 12:43:21;;;;;;;5.60;0.93;;;7.40;99.90;;;;;;5067746;28;20044;-80
2023/03/27 12:46:13;;;;;;;3.13;0.77;;;7.30;99.90;;;;;;5067945;28;20048;-80
2023/03/27 12:49:00;;;;;;;3.97;0.90;;;7.10;99.90;;;;;;5100197;28;20136;-80
2023/03/27 12:51:46;;;;;;;3.47;1.38;;;7.10;99.90;;;;;;5067922;28;20124;-81
2023/03/27 12:54:24;;;;;;;3.35;0.70;;;7.10;99.90;;;;;;5088265;28;20099;-81
2023/03/27 12:57:06;;;;;;;3.45;0.90;;;7.10;99.90;;;;;;5099278;28;20492;-81
2023/03/27 12:59:58;;;;;;;4.82;1.10;;;7.10;99.90;;;;;;5117595;28;20619;-81
2023/03/27 13:02:48;;;;;;;3.15;0.65;;;7.10;99.90;;;;;;5057971;28;20037;-80
2023/03/27 13:05:39;;;;;;;5.10;0.98;;;7.20;99.90;;;;;;5067845;28;20060;-80
2023/03/27 13:08:39;;;;;;;2.92;0.77;;;7.30;99.90;;;;;;5068031;28;20068;-80
2023/03/27 13:11:24;;;;;;;3.40;0.77;;;7.40;99.90;;;;;;5100918;28;20041;-80
2023/03/27 13:14:22;;;;;;;4.85;0.80;;;7.40;99.90;;;;;;5083615;28;20440;-81
2023/03/27 13:17:10;;;;;;;6.03;0.98;;;7.40;99.90;;;;;;5072710;28;20052;-81
2023/03/27 13:19:49;;;;;;;3.50;0.93;;;7.40;99.90;;;;;;5101161;28;20565;-81
2023/03/27 13:22:40;;;;;;;5.03;0.98;;;7.40;99.90;;;;;;5067920;28;20045;-81
2023/03/27 13:25:24;;;;;;;4.72;1.00;;;7.40;99.90;;;;;;5108992;28;20040;-81
2023/03/27 13:28:26;;;;;;;5.72;0.95;;;7.40;99.90;;;;;;5068065;28;20440;-80
2023/03/27 13:30:56;;;;;;;6.93;0.85;;;7.50;99.90;;;;;;5100552;28;20493;-80